Main page
METAR-TAF:

METAR-TAF

Airports :

Mexicali International Airport

Mexicali, Mexico

latitude: 32-37-50N, longitude: 115-14-30W, elevation: 22 m

Current weather observation

The report was made 49 minutes ago, at 04:40 UTC
Wind 12 kt from the Northwest
Temperature 22°C
Humidity 29%
Pressure 1008 hPa
Visibility: 16.1 km
Clear sky

METAR: MMML 210440Z 31012KT 10SM SKC 22/03 A2978

Time: 00:29 (05:29 UTC)

Forecast

The report was made 4 hours and 46 minutes ago, at 00:43 UTC
Forecast valid from 21 at 01 UTC to 21 at 18 UTC
Wind 20 kt from the West/Northwest
Visibility: 10 km
Clear sky
Becoming
from 21 at 03 UTC to 21 at 04 UTC
Becoming
from 21 at 03 UTC to 21 at 04 UTC
Wind 10 kt from the West/Northwest
From 21 at 1000 UTC
Wind 5 kt from the West
Visibility: 10 km
Clear sky
From 21 at 1700 UTC
Wind 12 kt from the West/Northwest
Visibility: 10 km
Clear sky

TAF: MMML 210043Z 2101/2118 29020KT P6SM SKC BECMG 2103/2104 BECMG 2103/2104 29010KT FM211000 28005KT P6SM SKC FM211700 29012KT P6SM SKC

Weather observations and forecasts of more than 4000 airports (METAR and TAF reports).

The available stations are represented by yellow and red dots on the map.

Hover mouse over dot to see the name of the station.

Then click to see weather observations and forecasts.

To change the map : click on the green buttons with a black cross to zoom in, on the green button with a dash to zoom out, or on the green arrows for adjacent maps.


METAR-TAF: